This is the latest recevied weather packets stored in our database for station/object YREN. If no packets are shown the sender has not sent any weather packets the latest 10 day(s).
| Time | Temp. | Humidity | Pressure | Rain* | Wind** | Luminosity | Snow |
|---|---|---|---|---|---|---|---|
| 1788241804 | 24.44° C | 31% | 1014.6 hPa | 0 mm | - | - | - |
| 1788240904 | 24.44° C | 31% | 1014.6 hPa | 0 mm | - | - | - |
| 1788240004 | 24.44° C | 31% | 1015 hPa | 0 mm | - | - | - |
| 1788239103 | 24.44° C | 31% | 1015 hPa | 0 mm | - | - | - |
| 1788238203 | 23.89° C | 33% | 1015.8 hPa | 0 mm | - | - | - |
| 1788214804 | 10.56° C | 78% | 1021.5 hPa | 0 mm | - | - | - |
| 1788212105 | 7.78° C | 85% | 1021.3 hPa | 0 mm | - | - | - |
| 1788211204 | 5.56° C | 87% | 1021.2 hPa | 0 mm | - | - | - |
| 1788210304 | 5.56° C | 87% | 1021.2 hPa | 0 mm | - | - | - |
| 1788209404 | 5.56° C | 87% | 1021.2 hPa | 0 mm | - | - | - |
| 1788208504 | 5.56° C | 87% | 1021.2 hPa | 0 mm | - | - | - |
| 1788207603 | 5.56° C | 89% | 1021.2 hPa | 0 mm | - | - | - |
| 1788206703 | 5.56° C | 89% | 1021.2 hPa | 0 mm | - | - | - |
| 1788204903 | 5.56° C | 88% | 1021.2 hPa | 0 mm | - | - | - |
| 1788204003 | 6.67° C | 83% | 1021.4 hPa | 0 mm | - | - | - |
| 1788203103 | 6.67° C | 83% | 1021.4 hPa | 0 mm | - | - | - |
| 1788202204 | 7.22° C | 84% | 1021.7 hPa | 0 mm | - | - | - |
| 1788201304 | 7.22° C | 84% | 1021.7 hPa | 0 mm | - | - | - |
| 1788200404 | 7.78° C | 81% | 1022 hPa | 0 mm | - | - | - |
| 1788199504 | 7.78° C | 81% | 1022 hPa | 0 mm | - | - | - |
| 1788197704 | 7.22° C | 82% | 1022.4 hPa | 0 mm | - | - | - |
| 1788196803 | 8.33° C | 82% | 1022.8 hPa | 0 mm | - | - | - |
| 1788195903 | 8.33° C | 82% | 1022.8 hPa | 0 mm | - | - | - |
| 1788194104 | 8.33° C | 84% | 1022.8 hPa | 0 mm | - | - | - |
| 1788193204 | 8.33° C | 82% | 1023.2 hPa | 0 mm | - | - | - |
* Rain latest hour (hover to see other rain measurements)
** Current wind speed in m/s (hover to see current wind gust speed)